»·PEaware :: VRD554 KSEA-KRNO

VRD554 :: KSEA-KRNO

FLIGHT INFORMATION

Flight Status: Arrived
Operator:
Virgin America
More flights by this operator :: More flights under this callsign
Pilot: Shawn G. (7208)
Aircraft: AIRBUS A320
(A320)
More flights by this aircraft type
Origin: KSEA Seattle-Tacoma Intl
United States
Destination: KRNO Reno/Tahoe Intl
United States
More flights between these airports :: More routes between these airports
Route: SUMMA1 LKV HARTT HARTT1
File this flight plan on PilotEdge
Remarks:
Altitude:
(Current/Filed)
39,000ft
Speed:
(Current/Filed)
448kts
Departed: 15-Dec-17 04:03 PM
Arrived: 15-Dec-17 05:22 PM
Distance/Time
Traveled:
489nm/1:19
Distance/Time
To Go:
Arrived

Flight Plot

Page will automatically refresh every two minutes.

Flight plan parsing failed; only flown route is shown


Map Options




Map Legend


Flown Route
Filed Route
Departure Airport
Arrival Airport
Navaid (VOR, NDB)
Fix

Horizontal Profiles

Position Reports

Time Latitude Longitude Heading Altitude Ground
Speed
15-Dec-17 15:47 47.445984 -122.300790 136 442ft 0kts
15-Dec-17 15:48 47.445984 -122.300790 136 442ft 0kts
15-Dec-17 15:49 47.445984 -122.300790 136 442ft 0kts
15-Dec-17 15:50 47.445984 -122.300790 136 442ft 0kts
15-Dec-17 15:51 47.445984 -122.300790 136 442ft 0kts
15-Dec-17 15:52 47.445984 -122.300789 136 442ft 0kts
15-Dec-17 15:53 47.445984 -122.300789 136 442ft 0kts
15-Dec-17 15:54 47.445984 -122.300789 136 442ft 0kts
15-Dec-17 15:55 47.445984 -122.300789 136 442ft 0kts
15-Dec-17 15:56 47.445984 -122.300790 136 442ft 0kts
15-Dec-17 15:57 47.446240 -122.301221 112 442ft 2kts
15-Dec-17 15:58 47.446231 -122.301852 63 442ft 0kts
15-Dec-17 15:59 47.446138 -122.302047 45 442ft 2kts
15-Dec-17 16:00 47.445589 -122.302407 18 442ft 0kts
15-Dec-17 16:01 47.445553 -122.302425 17 442ft 0kts
15-Dec-17 16:02 47.445576 -122.302415 17 442ft 2kts
15-Dec-17 16:03 47.446919 -122.302286 297 442ft 6kts
15-Dec-17 16:04 47.448191 -122.305577 277 442ft 11kts
15-Dec-17 16:05 47.453164 -122.306239 0 442ft 20kts
15-Dec-17 16:06 47.459679 -122.306182 0 442ft 26kts
15-Dec-17 16:07 47.463467 -122.306164 357 442ft 8kts
15-Dec-17 16:08 47.463636 -122.307582 225 442ft 9kts
15-Dec-17 16:09 47.437039 -122.308964 190 1222ft 180kts
15-Dec-17 16:10 47.385145 -122.311437 180 4188ft 218kts
15-Dec-17 16:11 47.316457 -122.310803 182 6929ft 267kts
15-Dec-17 16:12 47.239789 -122.306655 164 9965ft 293kts
15-Dec-17 16:13 47.165424 -122.236498 148 12226ft 340kts
15-Dec-17 16:14 47.080337 -122.177510 168 14864ft 348kts
15-Dec-17 16:15 46.985568 -122.138859 168 17232ft 362kts
15-Dec-17 16:16 46.888735 -122.099067 169 19358ft 374kts
15-Dec-17 16:17 46.788978 -122.058170 169 21306ft 384kts
15-Dec-17 16:18 46.685316 -122.015835 169 23100ft 394kts
15-Dec-17 16:19 46.578627 -121.973038 170 24745ft 402kts
15-Dec-17 16:20 46.469854 -121.931274 170 26230ft 411kts
15-Dec-17 16:21 46.358365 -121.888508 170 27601ft 419kts
15-Dec-17 16:22 46.245198 -121.845260 170 28874ft 426kts
15-Dec-17 16:23 46.129953 -121.801414 170 30012ft 433kts
15-Dec-17 16:24 46.012862 -121.757058 170 31018ft 440kts
15-Dec-17 16:25 45.899264 -121.714206 170 31928ft 446kts
15-Dec-17 16:26 45.779515 -121.669232 170 32774ft 451kts
15-Dec-17 16:27 45.657546 -121.623629 170 33504ft 457kts
15-Dec-17 16:28 45.534805 -121.577915 170 34389ft 455kts
15-Dec-17 16:29 45.412636 -121.532649 170 35175ft 455kts
15-Dec-17 16:30 45.290724 -121.487684 170 35894ft 454kts
15-Dec-17 16:31 45.168981 -121.442975 170 36561ft 454kts
15-Dec-17 16:32 45.047232 -121.398450 172 37274ft 450kts
15-Dec-17 16:33 44.928437 -121.355126 174 38388ft 434kts
15-Dec-17 16:34 44.812201 -121.313080 174 38609ft 436kts
15-Dec-17 16:35 44.695231 -121.270882 174 38798ft 438kts
15-Dec-17 16:36 44.577824 -121.228671 174 39052ft 438kts
15-Dec-17 16:37 44.460308 -121.186597 174 39262ft 437kts
15-Dec-17 16:37 44.362757 -121.151774 175 39269ft 431kts
15-Dec-17 16:39 44.227724 -121.103834 176 39272ft 430kts
15-Dec-17 16:40 44.112632 -121.063127 176 39279ft 427kts
15-Dec-17 16:40 44.017346 -121.029536 177 39279ft 425kts
15-Dec-17 16:42 43.885266 -120.983181 177 39280ft 421kts
15-Dec-17 16:43 43.772118 -120.943664 178 39286ft 419kts
15-Dec-17 16:44 43.678332 -120.911012 178 39272ft 418kts
15-Dec-17 16:45 43.547510 -120.865639 178 39262ft 417kts
15-Dec-17 16:46 43.453925 -120.833304 178 39264ft 417kts
15-Dec-17 16:47 43.341949 -120.794746 178 39265ft 417kts
15-Dec-17 16:48 43.229507 -120.756201 178 39282ft 417kts
15-Dec-17 16:49 43.117511 -120.717943 178 39276ft 417kts
15-Dec-17 16:50 43.005013 -120.679652 177 39269ft 418kts
15-Dec-17 16:51 42.893433 -120.641822 176 39249ft 420kts
15-Dec-17 16:52 42.779488 -120.603337 176 39271ft 424kts
15-Dec-17 16:53 42.665476 -120.564953 176 39302ft 425kts
15-Dec-17 16:54 42.550591 -120.526422 176 39296ft 426kts
15-Dec-17 16:55 42.436174 -120.490063 177 39284ft 423kts
15-Dec-17 16:56 42.321301 -120.455602 177 39270ft 423kts
15-Dec-17 16:57 42.206995 -120.421444 177 39261ft 422kts
15-Dec-17 16:58 42.092799 -120.387442 177 39259ft 422kts
15-Dec-17 16:59 41.978792 -120.353623 178 39259ft 422kts
15-Dec-17 17:00 41.865216 -120.320047 178 39258ft 420kts
15-Dec-17 17:01 41.751147 -120.286460 178 39256ft 420kts
15-Dec-17 17:02 41.637626 -120.253155 178 39261ft 420kts
15-Dec-17 17:03 41.523482 -120.219783 178 39272ft 420kts
15-Dec-17 17:04 41.409892 -120.186665 178 38686ft 418kts
15-Dec-17 17:05 41.297088 -120.153902 178 36417ft 415kts
15-Dec-17 17:06 41.185352 -120.121558 178 34296ft 407kts
15-Dec-17 17:07 41.077468 -120.090389 179 32653ft 388kts
15-Dec-17 17:08 40.973552 -120.060604 178 30867ft 384kts
15-Dec-17 17:09 40.872331 -120.031621 177 29069ft 378kts
15-Dec-17 17:10 40.771249 -120.000261 175 27227ft 371kts
15-Dec-17 17:11 40.672051 -119.968256 175 25245ft 367kts
15-Dec-17 17:12 40.574207 -119.936749 174 23397ft 359kts
15-Dec-17 17:13 40.478351 -119.905987 174 21560ft 352kts
15-Dec-17 17:14 40.384484 -119.875956 173 19738ft 344kts
15-Dec-17 17:15 40.292803 -119.846711 173 17944ft 337kts
15-Dec-17 17:16 40.203027 -119.818149 172 16181ft 330kts
15-Dec-17 17:17 40.114529 -119.790072 172 14431ft 324kts
15-Dec-17 17:18 40.027942 -119.767542 185 12727ft 310kts
15-Dec-17 17:19 39.947016 -119.767979 185 12078ft 272kts
15-Dec-17 17:20 39.874645 -119.768209 185 10886ft 267kts
15-Dec-17 17:21 39.800578 -119.768406 184 9549ft 267kts
15-Dec-17 17:22 39.729527 -119.768530 184 8249ft 242kts
15-Dec-17 17:23 39.665420 -119.768709 184 7180ft 226kts
15-Dec-17 17:24 39.609676 -119.768778 184 6464ft 177kts
15-Dec-17 17:25 39.568287 -119.768849 184 5644ft 137kts
15-Dec-17 17:26 39.531035 -119.769069 182 4893ft 132kts
15-Dec-17 17:27 39.497675 -119.769234 179 4424ft 46kts
15-Dec-17 17:28 39.492742 -119.771414 322 4424ft 14kts
15-Dec-17 17:29 39.497266 -119.771582 359 4424ft 17kts
15-Dec-17 17:30 39.502556 -119.771568 0 4424ft 20kts
15-Dec-17 17:31 39.505916 -119.772417 263 4424ft 10kts
15-Dec-17 17:32 39.505291 -119.773664 178 4424ft 0kts
15-Dec-17 17:33 39.505239 -119.773663 178 4424ft 0kts
15-Dec-17 17:34 39.505239 -119.773663 178 4424ft 0kts
15-Dec-17 17:35 39.505239 -119.773663 178 4424ft 0kts
15-Dec-17 17:36 39.505239 -119.773663 178 4424ft 0kts

Navigation Log

Ident Type
Flight plan parsing failed, navigation log unavailable